Time;durP1;ratioP1;P1;durP2;ratioP2;P2;SDS_P1;SDS_P2;PMS_P1;PMS_P2;Temp;Humidity;BMP_temperature;BMP_pressure;BME280_temperature;BME280_humidity;BME280_pressure;Samples;Min_cycle;Max_cycle;Signal;HPM_P1;HPM_P2
2021/04/01 00:01:59;;;;;;;16.30;8.68;;;;;;;6.16;100.00;98007.56;5090109;28;20280;-79
2021/04/01 00:04:26;;;;;;;22.48;9.57;;;;;;;6.21;100.00;98009.44;5085779;28;20118;-80
2021/04/01 00:06:52;;;;;;;22.10;9.63;;;;;;;6.20;100.00;97997.88;5105144;28;20301;-80
2021/04/01 00:09:18;;;;;;;22.67;8.73;;;;;;;6.25;100.00;98005.09;5112406;28;20035;-81
2021/04/01 00:11:44;;;;;;;19.42;8.25;;;;;;;6.25;100.00;98002.41;5113556;28;20044;-81
2021/04/01 00:14:11;;;;;;;18.73;8.20;;;;;;;6.20;100.00;97999.75;5112770;28;20047;-80
2021/04/01 00:16:37;;;;;;;18.00;7.95;;;;;;;6.09;100.00;97982.09;5096606;28;20133;-81
2021/04/01 00:19:04;;;;;;;18.02;7.82;;;;;;;6.11;100.00;98004.09;5110837;28;20503;-81
2021/04/01 00:21:30;;;;;;;15.35;7.97;;;;;;;6.04;100.00;98001.72;5102432;28;20513;-82
2021/04/01 00:23:56;;;;;;;15.77;7.75;;;;;;;6.02;100.00;97993.13;5090816;28;20047;-81
2021/04/01 00:26:23;;;;;;;16.63;8.65;;;;;;;5.99;100.00;97985.59;5073232;28;20044;-82
2021/04/01 00:28:49;;;;;;;19.52;8.30;;;;;;;5.88;100.00;97989.44;5072111;28;20044;-81
2021/04/01 00:31:15;;;;;;;15.73;8.35;;;;;;;5.86;100.00;97990.81;5089409;28;20056;-81
2021/04/01 00:33:41;;;;;;;21.48;8.65;;;;;;;5.81;100.00;97980.03;5073917;28;20048;-81
2021/04/01 00:36:10;;;;;;;19.42;8.65;;;;;;;5.83;100.00;97986.75;5071941;28;20144;-81
2021/04/01 00:38:36;;;;;;;19.75;8.80;;;;;;;5.78;100.00;97992.13;5075007;28;20041;-82
2021/04/01 00:41:04;;;;;;;21.85;9.35;;;;;;;5.77;100.00;97989.72;5072268;28;20056;-80
2021/04/01 00:43:33;;;;;;;15.88;8.85;;;;;;;5.77;100.00;97987.84;5073295;28;20091;-81
2021/04/01 00:45:59;;;;;;;21.80;9.40;;;;;;;5.71;100.00;97983.56;5061139;28;20040;-81
2021/04/01 00:48:25;;;;;;;23.85;9.40;;;;;;;5.64;100.00;97983.06;5079773;28;20032;-80
2021/04/01 00:50:52;;;;;;;20.95;9.35;;;;;;;5.70;100.00;97976.59;5063865;28;20072;-81
2021/04/01 00:53:18;;;;;;;19.10;10.02;;;;;;;5.74;100.00;97983.00;5091860;28;20052;-80
2021/04/01 00:55:48;;;;;;;20.20;9.90;;;;;;;5.71;100.00;97970.13;5081698;28;20053;-82
2021/04/01 00:58:14;;;;;;;21.25;9.57;;;;;;;5.74;100.00;97984.88;5082983;28;20070;-81
2021/04/01 01:00:40;;;;;;;19.92;9.25;;;;;;;5.71;100.00;97975.50;5082641;28;20048;-80
2021/04/01 01:03:06;;;;;;;21.80;9.48;;;;;;;5.74;100.00;97969.59;5082462;28;20475;-81
2021/04/01 01:05:35;;;;;;;19.17;9.50;;;;;;;5.76;100.00;97974.66;5066714;28;20068;-80
2021/04/01 01:08:03;;;;;;;20.90;9.18;;;;;;;5.72;100.00;97969.06;5082207;28;20054;-80
2021/04/01 01:10:31;;;;;;;16.48;9.50;;;;;;;5.71;100.00;97967.44;5081605;28;20044;-80
2021/04/01 01:12:59;;;;;;;24.52;9.70;;;;;;;5.76;100.00;97971.97;5064399;28;20486;-81
2021/04/01 01:15:26;;;;;;;28.33;10.45;;;;;;;5.70;100.00;97973.91;5078312;28;20040;-82
2021/04/01 01:17:54;;;;;;;17.30;9.73;;;;;;;5.70;100.00;97957.00;5078270;28;20488;-81
2021/04/01 01:20:26;;;;;;;26.35;9.20;;;;;;;5.70;100.00;97970.41;5076793;28;20041;-81
2021/04/01 01:23:12;;;;;;;17.90;8.70;;;;;;;5.66;100.00;97952.16;5078975;28;20040;-81
2021/04/01 01:25:38;;;;;;;18.73;7.70;;;;;;;5.56;100.00;97949.50;5080364;28;20066;-80
2021/04/01 01:28:06;;;;;;;17.85;8.18;;;;;;;5.42;100.00;97953.84;5060153;28;20064;-80
2021/04/01 01:30:33;;;;;;;17.35;8.85;;;;;;;5.45;100.00;97944.44;5080863;28;20040;-81
2021/04/01 01:33:02;;;;;;;20.05;9.50;;;;;;;5.40;100.00;97944.47;5078420;28;20040;-79
2021/04/01 01:35:37;;;;;;;24.05;9.23;;;;;;;5.43;100.00;97947.41;5075113;28;20048;-81
2021/04/01 01:38:09;;;;;;;26.80;10.18;;;;;;;5.45;100.00;97942.56;5061160;28;20077;-80
2021/04/01 01:40:37;;;;;;;21.30;10.07;;;;;;;5.43;100.00;97938.56;5084912;28;20040;-81
2021/04/01 01:43:09;;;;;;;18.75;8.98;;;;;;;5.43;100.00;97943.91;5076153;28;20045;-81
2021/04/01 01:45:37;;;;;;;25.52;9.90;;;;;;;5.43;100.00;97936.69;5073136;28;20151;-80
2021/04/01 01:48:04;;;;;;;20.00;9.25;;;;;;;5.43;100.00;97941.25;5057276;28;20066;-79
2021/04/01 01:50:32;;;;;;;23.20;10.30;;;;;;;5.31;100.00;97936.19;5074139;28;20060;-79
2021/04/01 01:52:59;;;;;;;17.95;9.25;;;;;;;5.31;100.00;97933.50;5089716;28;20267;-81
2021/04/01 01:55:26;;;;;;;23.25;10.93;;;;;;;5.33;100.00;97934.03;5059360;28;20057;-79
2021/04/01 01:57:52;;;;;;;23.05;10.60;;;;;;;5.40;100.00;97926.47;5075983;28;20131;-79
2021/04/01 02:00:20;;;;;;;19.25;10.20;;;;;;;5.39;100.00;97926.78;5074820;28;20049;-79
2021/04/01 02:02:58;;;;;;;18.15;9.38;;;;;;;5.42;100.00;97923.53;5073964;28;20049;-79
2021/04/01 02:05:28;;;;;;;26.08;10.48;;;;;;;5.32;100.00;97910.13;5056852;28;20048;-80
2021/04/01 02:07:55;;;;;;;19.40;10.07;;;;;;;5.23;100.00;97920.66;5073504;28;20036;-79
2021/04/01 02:10:32;;;;;;;19.80;10.20;;;;;;;5.17;100.00;97915.56;5074085;28;20044;-80
2021/04/01 02:13:02;;;;;;;24.30;10.10;;;;;;;5.27;100.00;97920.88;5077277;28;20052;-81
2021/04/01 02:15:31;;;;;;;22.70;10.18;;;;;;;5.26;100.00;97916.63;5058218;28;20048;-79
2021/04/01 02:18:08;;;;;;;21.02;10.18;;;;;;;5.22;100.00;97921.72;5074664;28;20425;-81
2021/04/01 02:20:43;;;;;;;21.40;10.27;;;;;;;5.16;100.00;97922.81;5073524;28;20041;-78
2021/04/01 02:23:13;;;;;;;17.90;9.98;;;;;;;5.14;100.00;97913.41;5073456;28;20101;-80
2021/04/01 02:25:40;;;;;;;25.98;10.10;;;;;;;5.14;100.00;97910.72;5074591;28;20051;-78
2021/04/01 02:28:07;;;;;;;19.42;10.18;;;;;;;5.20;100.00;97912.31;5057675;28;20488;-81
2021/04/01 02:30:34;;;;;;;18.50;9.93;;;;;;;5.16;100.00;97911.28;5073310;28;20416;-80
2021/04/01 02:33:00;;;;;;;24.40;9.93;;;;;;;5.13;100.00;97907.25;5081630;28;20056;-80
2021/04/01 02:35:26;;;;;;;19.77;9.32;;;;;;;5.16;100.00;97900.53;5078454;28;20109;-80
2021/04/01 02:37:52;;;;;;;19.08;8.85;;;;;;;5.10;100.00;97902.44;5078606;28;20042;-80
2021/04/01 02:40:18;;;;;;;27.15;10.30;;;;;;;5.07;100.00;97908.34;5085184;28;20043;-80
2021/04/01 02:42:45;;;;;;;25.90;10.00;;;;;;;4.95;100.00;97911.34;5084934;28;20394;-80
2021/04/01 02:45:12;;;;;;;22.75;9.95;;;;;;;4.82;100.00;97901.16;5072879;28;20403;-80
2021/04/01 02:47:39;;;;;;;21.67;10.05;;;;;;;4.88;100.00;97910.78;5095466;28;20059;-81
2021/04/01 02:50:08;;;;;;;24.15;9.88;;;;;;;4.97;100.00;97908.38;5079495;28;20097;-81
2021/04/01 02:52:37;;;;;;;25.88;10.63;;;;;;;4.92;100.00;97901.16;5108870;28;20054;-81
2021/04/01 02:55:05;;;;;;;21.63;10.05;;;;;;;4.93;100.00;97908.09;5088023;28;20082;-80
2021/04/01 02:57:31;;;;;;;23.10;9.65;;;;;;;4.91;100.00;97904.09;5089050;28;20039;-79
2021/04/01 02:59:57;;;;;;;19.77;10.02;;;;;;;4.94;100.00;97915.09;5097208;28;20055;-79
2021/04/01 03:02:26;;;;;;;16.80;9.05;;;;;;;4.88;100.00;97888.53;5078238;28;20052;-78
2021/04/01 03:04:53;;;;;;;21.60;9.57;;;;;;;4.97;100.00;97893.09;5095174;28;20040;-79
2021/04/01 03:07:20;;;;;;;24.10;10.23;;;;;;;4.97;100.00;97895.75;5094840;28;20048;-80
2021/04/01 03:09:46;;;;;;;21.05;9.63;;;;;;;4.85;100.00;97889.88;5096105;28;20131;-79
2021/04/01 03:12:13;;;;;;;20.77;9.45;;;;;;;4.82;100.00;97890.44;5096609;28;20108;-78
2021/04/01 03:14:41;;;;;;;23.20;9.95;;;;;;;4.90;100.00;97883.72;5096155;28;20048;-79
2021/04/01 03:17:07;;;;;;;20.17;9.45;;;;;;;4.94;100.00;97882.09;5085120;28;20063;-80
2021/04/01 03:19:33;;;;;;;18.85;9.60;;;;;;;4.94;100.00;97879.41;5074152;28;20052;-80
2021/04/01 03:22:02;;;;;;;18.27;9.60;;;;;;;4.91;100.00;97877.25;5075777;28;20044;-79
2021/04/01 03:24:28;;;;;;;20.38;9.75;;;;;;;4.89;100.00;97879.41;5075713;28;20049;-80
2021/04/01 03:26:54;;;;;;;16.80;9.13;;;;;;;4.86;100.00;97880.75;5077941;28;20051;-79
2021/04/01 03:29:20;;;;;;;16.75;8.25;;;;;;;4.80;100.00;97873.00;5059565;28;20045;-80
2021/04/01 03:31:46;;;;;;;17.00;8.70;;;;;;;4.73;100.00;97878.66;5076046;28;20040;-79
2021/04/01 03:34:12;;;;;;;18.30;8.63;;;;;;;4.70;100.00;97873.00;5077539;28;20053;-79
2021/04/01 03:36:39;;;;;;;20.15;9.05;;;;;;;4.57;100.00;97878.94;5059103;28;20124;-79
2021/04/01 03:39:05;;;;;;;20.90;8.93;;;;;;;4.50;100.00;97873.03;5074191;28;20040;-80
2021/04/01 03:41:31;;;;;;;19.10;9.43;;;;;;;4.57;100.00;97866.31;5079874;28;20044;-80
2021/04/01 03:44:01;;;;;;;21.45;9.20;;;;;;;4.61;100.00;97871.97;5085962;28;20047;-80
2021/04/01 03:46:29;;;;;;;20.60;8.80;;;;;;;4.88;100.00;97881.28;5095488;28;20048;-80
2021/04/01 03:48:55;;;;;;;17.65;9.82;;;;;;;4.81;100.00;97866.56;5094819;28;20044;-81
2021/04/01 03:51:21;;;;;;;17.05;9.00;;;;;;;4.73;100.00;97865.22;5095816;28;20086;-80
2021/04/01 03:53:47;;;;;;;19.30;9.60;;;;;;;4.67;100.00;97874.34;5091469;28;20052;-80
2021/04/01 03:56:13;;;;;;;29.58;10.43;;;;;;;4.66;100.00;97874.63;5092252;28;20044;-80
2021/04/01 03:58:55;;;;;;;24.60;10.20;;;;;;;4.64;100.00;97880.28;5092437;28;20470;-80
2021/04/01 04:11:28;;;;;;;22.90;10.43;;;;;;;4.62;100.00;97871.69;5070891;28;20055;-81
2021/04/01 04:16:23;;;;;;;23.75;9.55;;;;;;;4.73;100.00;97857.19;5071175;28;20045;-80
2021/04/01 04:18:50;;;;;;;17.90;9.48;;;;;;;4.72;100.00;97858.25;5054034;28;20484;-79
2021/04/01 04:21:17;;;;;;;20.63;8.95;;;;;;;4.68;100.00;97856.41;5056782;28;20052;-80
2021/04/01 04:23:49;;;;;;;19.67;8.27;;;;;;;4.63;100.00;97838.44;5074429;28;20041;-80
2021/04/01 04:26:16;;;;;;;24.35;8.98;;;;;;;4.67;100.00;97844.84;5076040;28;20055;-80
2021/04/01 04:28:43;;;;;;;21.23;9.80;;;;;;;4.70;100.00;97848.88;5075299;28;20931;-80
2021/04/01 04:31:09;;;;;;;21.83;9.40;;;;;;;4.73;100.00;97851.03;5076144;28;20044;-80
2021/04/01 04:33:37;;;;;;;18.90;9.30;;;;;;;4.70;100.00;97838.97;5075420;28;20044;-80
2021/04/01 04:36:07;;;;;;;22.50;8.50;;;;;;;4.62;100.00;97842.19;5076348;28;20048;-80
2021/04/01 04:38:35;;;;;;;22.23;9.93;;;;;;;4.63;100.00;97843.81;5076761;28;20063;-80
2021/04/01 04:41:02;;;;;;;17.73;8.95;;;;;;;4.65;100.00;97844.34;5077744;28;20052;-79
2021/04/01 04:43:35;;;;;;;28.45;9.40;;;;;;;4.68;100.00;97840.31;5079390;28;20044;-81
2021/04/01 04:46:02;;;;;;;25.63;9.95;;;;;;;4.65;100.00;97849.69;5075816;28;20036;-81
2021/04/01 04:48:30;;;;;;;27.20;10.40;;;;;;;4.61;100.00;97859.38;5076642;28;20048;-81
2021/04/01 04:50:57;;;;;;;28.75;10.70;;;;;;;4.55;100.00;97860.44;5076150;28;20044;-81
2021/04/01 04:53:24;;;;;;;27.77;10.38;;;;;;;4.55;100.00;97851.59;5075294;28;20072;-80
2021/04/01 04:56:13;;;;;;;25.90;10.57;;;;;;;4.59;100.00;97853.47;5074889;28;20044;-80
2021/04/01 04:59:26;;;;;;;29.35;11.07;;;;;;;4.73;100.00;97867.91;5075006;28;20337;-80
2021/04/01 05:07:04;;;;;;;24.27;10.95;;;;;;;5.10;100.00;97858.69;5081954;28;20330;-80
2021/04/01 05:09:30;;;;;;;21.83;10.30;;;;;;;5.04;100.00;97847.16;5083491;28;20048;-80
2021/04/01 05:11:56;;;;;;;31.73;10.55;;;;;;;5.12;100.00;97848.50;5083719;28;20047;-80
2021/04/01 05:14:22;;;;;;;31.25;10.95;;;;;;;5.26;100.00;97852.19;5053184;28;20051;-81
2021/04/01 05:16:51;;;;;;;25.02;10.60;;;;;;;5.30;100.00;97859.41;5088186;28;20055;-81
2021/04/01 05:19:18;;;;;;;25.88;9.75;;;;;;;5.34;100.00;97846.25;5070232;28;20075;-81
2021/04/01 05:21:54;;;;;;;25.58;10.20;;;;;;;5.42;100.00;97849.16;5067637;28;20261;-81
2021/04/01 05:24:22;;;;;;;27.83;10.02;;;;;;;5.43;100.00;97844.59;5056525;28;20294;-79
2021/04/01 05:29:35;;;;;;;22.70;10.27;;;;;;;5.70;100.00;97844.19;5069582;28;20123;-81
2021/04/01 05:32:04;;;;;;;20.40;9.88;;;;;;;5.91;100.00;97837.63;5074666;28;20385;-81
2021/04/01 05:34:31;;;;;;;27.45;11.63;;;;;;;6.05;100.00;97846.66;5075774;28;20040;-81
2021/04/01 05:36:59;;;;;;;23.67;10.00;;;;;;;6.16;100.00;97843.63;5058008;28;20048;-81
2021/04/01 05:39:32;;;;;;;21.33;9.70;;;;;;;6.26;100.00;97840.84;5074828;28;20044;-79
2021/04/01 05:41:59;;;;;;;24.20;10.18;;;;;;;6.37;100.00;97846.13;5056204;28;20045;-79
2021/04/01 05:44:35;;;;;;;20.65;9.40;;;;;;;6.41;100.00;97844.47;5061511;28;20412;-78
2021/04/01 05:47:18;;;;;;;19.77;9.65;;;;;;;6.59;100.00;97838.38;5079562;23;20048;-76
2021/04/01 05:50:05;;;;;;;22.20;9.07;;;;;;;6.72;100.00;97837.72;5070936;28;20041;-77
2021/04/01 05:58:18;;;;;;;28.73;10.27;;;;;;;7.11;100.00;97851.00;5076509;28;20131;-76
2021/04/01 06:03:39;;;;;;;25.45;10.48;;;;;;;7.30;100.00;97846.50;5086369;28;20059;-76
2021/04/01 06:06:08;;;;;;;26.35;9.63;;;;;;;7.40;100.00;97847.16;5069344;28;20048;-76
2021/04/01 06:08:47;;;;;;;27.48;10.02;;;;;;;7.52;100.00;97849.41;5078346;28;20146;-77
2021/04/01 06:11:13;;;;;;;21.30;9.93;;;;;;;7.65;100.00;97845.22;5079224;28;20064;-77
2021/04/01 06:13:55;;;;;;;28.50;11.45;;;;;;;7.82;100.00;97851.69;5079455;28;20096;-76
2021/04/01 06:16:23;;;;;;;30.80;10.95;;;;;;;7.95;100.00;97852.84;5087239;28;20520;-77
2021/04/01 06:18:56;;;;;;;23.33;11.27;;;;;;;8.04;100.00;97845.72;5091976;28;20119;-76
2021/04/01 06:21:28;;;;;;;32.88;11.07;;;;;;;8.22;100.00;97839.50;5090110;28;20475;-76
2021/04/01 06:24:14;;;;;;;23.15;11.00;;;;;;;8.33;100.00;97838.28;5088294;28;20036;-76
2021/04/01 06:26:48;;;;;;;28.15;10.68;;;;;;;8.52;100.00;97849.00;5088387;28;20070;-76
2021/04/01 06:29:17;;;;;;;24.00;10.80;;;;;;;8.64;100.00;97838.56;5087148;28;20440;-75
2021/04/01 06:31:45;;;;;;;27.95;11.90;;;;;;;8.77;100.00;97851.28;5066089;28;20048;-76
2021/04/01 06:34:12;;;;;;;31.40;10.63;;;;;;;8.84;100.00;97840.06;5066432;28;20434;-77
2021/04/01 06:36:51;;;;;;;29.92;11.23;;;;;;;9.00;100.00;97844.09;5067954;28;20040;-75
2021/04/01 06:39:22;;;;;;;29.45;10.68;;;;;;;9.17;100.00;97841.59;5067865;28;20044;-76
2021/04/01 06:42:28;;;;;;;26.33;11.63;;;;;;;9.52;100.00;97845.47;5067591;28;20450;-76
2021/04/01 06:45:03;;;;;;;25.10;11.13;;;;;;;9.78;100.00;97838.44;5038824;28;20060;-76
2021/04/01 06:47:32;;;;;;;28.25;11.75;;;;;;;10.08;100.00;97842.31;5066817;28;20056;-77
2021/04/01 06:50:15;;;;;;;28.33;12.48;;;;;;;10.40;100.00;97840.19;5076750;28;20044;-75
2021/04/01 06:52:49;;;;;;;30.15;12.20;;;;;;;11.08;100.00;97847.91;5078500;28;20040;-77
2021/04/01 06:55:47;;;;;;;29.35;11.75;;;;;;;11.87;100.00;97845.91;5076602;28;20047;-76
2021/04/01 07:01:35;;;;;;;34.55;12.23;;;;;;;14.01;99.56;97841.75;5078107;28;20076;-77
2021/04/01 07:04:05;;;;;;;29.80;11.88;;;;;;;14.57;88.04;97840.31;5072377;28;20032;-76
2021/04/01 07:06:37;;;;;;;29.38;12.48;;;;;;;15.02;87.27;97836.81;5078403;28;20043;-77
2021/04/01 07:09:28;;;;;;;35.60;12.35;;;;;;;15.41;71.70;97841.59;5079663;28;20442;-76
2021/04/01 07:12:13;;;;;;;27.27;12.02;;;;;;;15.65;64.34;97838.91;5072706;28;20443;-76
2021/04/01 07:14:42;;;;;;;28.30;12.35;;;;;;;15.74;66.39;97836.84;5076026;28;20033;-75
2021/04/01 07:17:11;;;;;;;27.52;12.07;;;;;;;15.85;62.47;97829.75;5072979;28;20040;-77
2021/04/01 07:47:32;;;;;;;25.15;12.43;;;;;;;16.22;56.18;97841.41;5064856;28;20434;-76
2021/04/01 07:50:09;;;;;;;31.83;11.77;;;;;;;16.33;55.01;97845.25;5067183;28;20048;-76
2021/04/01 07:52:36;;;;;;;28.90;12.40;;;;;;;16.36;53.84;97851.94;5066453;28;20051;-76
2021/04/01 07:55:09;;;;;;;34.47;12.57;;;;;;;16.32;54.22;97849.09;5064652;28;20067;-75
2021/04/01 07:58:50;;;;;;;38.15;12.48;;;;;;;16.17;53.63;97836.97;5068273;28;20480;-77
2021/04/01 08:05:56;;;;;;;33.17;13.63;;;;;;;16.01;56.81;97843.50;5071929;28;20053;-77
2021/04/01 08:08:24;;;;;;;26.48;12.85;;;;;;;15.93;57.09;97847.97;5070877;28;20051;-77
2021/04/01 08:11:01;;;;;;;34.33;12.77;;;;;;;16.09;54.29;97842.56;5073054;28;20468;-76
2021/04/01 08:13:31;;;;;;;29.77;12.93;;;;;;;16.27;53.82;97851.28;5070423;28;20040;-76
2021/04/01 08:16:04;;;;;;;36.58;12.73;;;;;;;16.45;54.08;97856.13;5071128;28;20170;-77
2021/04/01 08:18:35;;;;;;;35.35;13.20;;;;;;;16.56;53.85;97834.59;5069868;28;20127;-77
2021/04/01 08:21:08;;;;;;;43.20;13.75;;;;;;;16.66;53.70;97843.09;5070265;28;20106;-76
2021/04/01 08:24:03;;;;;;;28.40;13.15;;;;;;;16.34;53.44;97837.81;5068236;28;20480;-76
2021/04/01 08:27:18;;;;;;;31.67;12.75;;;;;;;16.70;53.48;97843.97;5068679;28;20163;-76
2021/04/01 08:36:02;;;;;;;29.95;12.85;;;;;;;16.92;52.24;97841.81;5068494;28;20455;-75
2021/04/01 08:38:49;;;;;;;32.15;13.68;;;;;;;16.83;51.85;97832.97;5071467;28;20080;-76
2021/04/01 08:41:39;;;;;;;35.08;13.38;;;;;;;16.67;51.02;97847.41;5069838;28;20309;-77
2021/04/01 08:44:55;;;;;;;41.85;12.50;;;;;;;16.74;53.62;97844.88;5076490;28;20036;-77
2021/04/01 08:48:07;;;;;;;36.55;13.60;;;;;;;16.99;53.65;97847.44;5091602;28;20482;-76
2021/04/01 08:50:39;;;;;;;29.33;13.07;;;;;;;17.09;54.32;97850.47;5089477;28;20040;-77
2021/04/01 08:53:33;;;;;;;31.75;14.20;;;;;;;17.15;52.79;97851.81;5089969;28;20119;-76
2021/04/01 08:56:20;;;;;;;29.88;13.80;;;;;;;17.18;51.65;97851.13;5088709;28;20438;-76
2021/04/01 08:58:58;;;;;;;30.55;13.90;;;;;;;17.31;50.62;97844.41;5089222;28;20040;-76
2021/04/01 09:01:28;;;;;;;36.45;14.65;;;;;;;17.50;52.47;97838.19;5089639;28;20055;-76
2021/04/01 09:03:58;;;;;;;32.38;13.98;;;;;;;17.72;54.93;97836.78;5088273;28;20142;-77
2021/04/01 09:06:27;;;;;;;34.38;13.70;;;;;;;17.39;54.26;97839.91;5089306;28;20044;-75
2021/04/01 09:09:11;;;;;;;34.95;14.35;;;;;;;17.34;53.92;97834.69;5088431;28;20052;-75
2021/04/01 09:14:17;;;;;;;36.42;14.45;;;;;;;17.61;51.14;97827.53;5088831;28;20066;-77
2021/04/01 09:16:57;;;;;;;30.02;14.45;;;;;;;17.83;52.36;97830.41;5089208;28;20051;-77
2021/04/01 09:19:28;;;;;;;38.17;14.82;;;;;;;17.85;53.10;97843.75;5089501;28;20124;-76
2021/04/01 09:21:58;;;;;;;33.33;15.10;;;;;;;17.63;53.94;97834.22;5087158;28;20063;-76
2021/04/01 09:24:33;;;;;;;31.15;14.88;;;;;;;17.64;53.67;97840.50;5087180;28;20444;-76
2021/04/01 09:27:00;;;;;;;35.77;16.13;;;;;;;17.91;51.71;97842.34;5089335;28;20071;-76
2021/04/01 09:29:37;;;;;;;35.28;15.00;;;;;;;17.79;52.69;97837.75;5074181;28;20127;-76
2021/04/01 09:32:05;;;;;;;39.50;15.45;;;;;;;17.71;54.41;97838.72;5091621;28;20062;-75
2021/04/01 09:34:32;;;;;;;38.65;15.38;;;;;;;17.88;55.36;97840.31;5093757;28;20093;-75
2021/04/01 09:37:17;;;;;;;31.75;15.65;;;;;;;18.42;55.42;97837.53;5089363;28;20043;-76
2021/04/01 09:39:43;;;;;;;33.92;14.75;;;;;;;18.79;55.24;97844.16;5058799;28;20051;-75
2021/04/01 09:42:13;;;;;;;34.88;15.20;;;;;;;18.82;53.72;97845.41;5068615;28;20152;-75
2021/04/01 09:45:01;;;;;;;33.63;15.40;;;;;;;19.00;52.76;97841.84;5067954;28;20056;-75
2021/04/01 09:47:35;;;;;;;36.58;16.08;;;;;;;19.35;49.84;97838.94;5068211;28;20147;-77
2021/04/01 09:50:06;;;;;;;40.80;17.08;;;;;;;19.76;48.52;97842.75;5066757;28;20071;-76
2021/04/01 09:52:33;;;;;;;45.97;17.92;;;;;;;19.59;49.79;97837.78;5067915;28;20082;-79
2021/04/01 09:55:06;;;;;;;38.88;17.60;;;;;;;19.53;45.54;97844.72;5067924;28;20040;-79
2021/04/01 09:57:48;;;;;;;46.65;18.08;;;;;;;19.36;44.95;97829.50;5067632;28;20044;-78
2021/04/01 10:03:40;;;;;;;32.35;17.45;;;;;;;19.95;44.54;97831.63;5068737;28;20068;-79
2021/04/01 10:06:06;;;;;;;39.67;17.77;;;;;;;20.01;45.65;97826.59;5066099;28;20094;-75
2021/04/01 10:08:39;;;;;;;40.35;17.90;;;;;;;20.74;43.68;97831.47;5067490;28;20070;-76
2021/04/01 10:11:12;;;;;;;38.33;17.88;;;;;;;20.47;43.02;97823.31;5065254;28;20130;-76
2021/04/01 10:13:38;;;;;;;39.20;19.00;;;;;;;20.24;45.99;97827.34;5072342;28;20093;-71
2021/04/01 10:16:20;;;;;;;37.72;18.73;;;;;;;19.92;43.39;97833.16;5063569;28;20059;-70
2021/04/01 10:18:48;;;;;;;36.92;18.73;;;;;;;19.73;45.12;97824.25;5062993;28;20331;-76
2021/04/01 10:21:14;;;;;;;41.17;18.73;;;;;;;19.90;43.68;97813.50;5046403;28;20221;-77
2021/04/01 10:23:51;;;;;;;34.83;18.02;;;;;;;20.41;46.14;97827.56;5076760;28;20047;-73
2021/04/01 10:26:22;;;;;;;39.47;17.77;;;;;;;20.86;44.48;97832.00;5085430;28;20499;-77
2021/04/01 10:29:06;;;;;;;42.33;18.35;;;;;;;21.50;46.03;97824.38;5084707;28;20055;-75
2021/04/01 10:31:52;;;;;;;42.95;18.63;;;;;;;21.70;42.48;97822.97;5066937;28;20045;-77
2021/04/01 10:34:40;;;;;;;41.35;19.13;;;;;;;22.17;40.99;97817.34;5068336;28;20118;-77
2021/04/01 10:37:09;;;;;;;35.55;18.48;;;;;;;22.47;40.50;97819.09;5047816;28;20071;-77
2021/04/01 10:39:38;;;;;;;48.03;20.73;;;;;;;22.54;39.23;97808.06;5069448;28;20055;-78
2021/04/01 10:42:07;;;;;;;37.55;18.85;;;;;;;22.67;38.94;97801.84;5067348;28;20059;-76
2021/04/01 10:44:33;;;;;;;36.88;20.35;;;;;;;23.02;39.01;97792.84;5082128;28;20040;-76
2021/04/01 10:47:01;;;;;;;46.75;20.42;;;;;;;23.32;39.55;97784.97;5080735;28;20243;-76
2021/04/01 10:49:33;;;;;;;39.30;21.58;;;;;;;23.38;37.56;97786.16;5061468;28;20052;-77
2021/04/01 10:52:02;;;;;;;46.80;21.00;;;;;;;23.13;38.55;97785.34;5062390;28;20045;-76
2021/04/01 10:54:37;;;;;;;50.00;20.98;;;;;;;23.49;39.43;97775.91;5066510;28;20052;-77
2021/04/01 10:57:06;;;;;;;43.70;19.70;;;;;;;23.03;39.00;97771.53;5064745;28;20376;-76
2021/04/01 10:59:36;;;;;;;39.35;21.88;;;;;;;22.76;37.66;97752.56;5071578;28;20048;-76
2021/04/01 11:02:11;;;;;;;45.80;22.25;;;;;;;21.90;41.06;97747.13;5049932;28;20063;-77
2021/04/01 11:04:40;;;;;;;49.72;24.08;;;;;;;21.46;39.17;97735.41;5067558;28;20495;-77
2021/04/01 11:07:08;;;;;;;52.55;25.15;;;;;;;20.87;38.59;97729.03;5079626;28;20052;-77
2021/04/01 11:09:35;;;;;;;55.95;27.20;;;;;;;21.03;39.04;97734.28;5090661;28;20059;-77
2021/04/01 11:12:14;;;;;;;49.72;24.83;;;;;;;20.87;41.15;97748.28;5086098;28;20046;-75
2021/04/01 11:14:43;;;;;;;54.65;23.98;;;;;;;20.58;41.93;97746.41;5085898;28;20150;-75
2021/04/01 11:17:13;;;;;;;51.92;23.67;;;;;;;20.46;41.26;97766.75;5086726;28;20050;-75
2021/04/01 11:19:43;;;;;;;55.70;24.55;;;;;;;19.99;43.73;97771.22;5086175;28;20093;-76
2021/04/01 11:22:09;;;;;;;52.47;24.35;;;;;;;19.77;44.68;97765.44;5089399;28;20101;-76
2021/04/01 11:24:37;;;;;;;51.40;23.70;;;;;;;19.67;44.19;97766.06;5077690;28;20098;-78
2021/04/01 11:27:08;;;;;;;55.75;23.20;;;;;;;19.40;44.88;97756.28;5080323;28;20040;-75
2021/04/01 11:29:34;;;;;;;53.40;23.17;;;;;;;19.30;45.31;97754.13;5090627;28;20043;-77
2021/04/01 11:32:20;;;;;;;69.47;24.90;;;;;;;19.66;46.29;97758.22;5089861;28;20048;-76
2021/04/01 11:34:48;;;;;;;44.25;23.15;;;;;;;19.57;44.94;97750.25;5067846;28;20082;-75
2021/04/01 11:37:18;;;;;;;61.47;23.80;;;;;;;19.68;45.21;97755.88;5069405;28;20155;-75
2021/04/01 11:39:45;;;;;;;52.63;23.52;;;;;;;20.54;44.54;97745.59;5070572;28;20051;-77
2021/04/01 11:42:13;;;;;;;47.83;22.92;;;;;;;22.23;41.12;97738.59;5068125;28;20045;-76
2021/04/01 11:44:41;;;;;;;46.97;24.20;;;;;;;23.61;36.21;97736.03;5076939;28;20528;-76
2021/04/01 11:47:21;;;;;;;54.42;24.77;;;;;;;24.11;37.83;97731.94;5098041;22;20048;-77
2021/04/01 11:49:49;;;;;;;45.78;23.95;;;;;;;25.20;34.50;97715.88;5074327;28;20052;-79
2021/04/01 11:52:17;;;;;;;44.38;23.17;;;;;;;24.52;36.47;97721.06;5074950;28;20040;-77
2021/04/01 11:54:46;;;;;;;45.28;25.05;;;;;;;26.57;34.97;97724.69;5070593;28;20059;-79
2021/04/01 11:57:25;;;;;;;52.30;24.67;;;;;;;24.88;34.85;97724.41;5076387;28;20315;-77
2021/04/01 12:00:02;;;;;;;45.00;23.83;;;;;;;25.10;36.15;97719.50;5091670;28;20044;-79
2021/04/01 12:02:30;;;;;;;46.70;25.55;;;;;;;24.83;35.00;97724.09;5087560;28;20592;-78
2021/04/01 12:05:01;;;;;;;41.65;25.15;;;;;;;25.74;33.49;97717.75;5068421;28;20052;-77
2021/04/01 12:07:30;;;;;;;46.80;25.05;;;;;;;25.59;33.26;97718.31;5067207;28;20055;-79
2021/04/01 12:09:56;;;;;;;47.10;25.33;;;;;;;25.20;34.97;97724.19;5067684;28;20045;-77
2021/04/01 12:12:27;;;;;;;40.25;24.48;;;;;;;25.11;33.86;97721.09;5069911;28;20064;-78
2021/04/01 12:14:54;;;;;;;49.78;25.23;;;;;;;24.32;35.18;97728.28;5051176;28;20067;-77
2021/04/01 12:17:30;;;;;;;46.33;23.60;;;;;;;24.05;34.39;97722.44;5068547;28;20036;-80
2021/04/01 12:19:58;;;;;;;46.92;23.35;;;;;;;23.74;35.46;97708.75;5051975;28;20044;-77
2021/04/01 12:22:34;;;;;;;46.00;23.60;;;;;;;25.60;34.53;97712.38;5066450;28;20037;-77
2021/04/01 12:25:01;;;;;;;48.53;23.20;;;;;;;24.70;35.64;97699.59;5069281;28;20048;-78
2021/04/01 12:27:31;;;;;;;48.08;23.02;;;;;;;23.80;35.08;97707.13;5069366;28;20048;-78
2021/04/01 12:29:58;;;;;;;44.92;23.13;;;;;;;22.43;37.13;97699.66;5071372;28;20071;-78
2021/04/01 12:32:30;;;;;;;46.63;22.77;;;;;;;22.14;37.70;97696.03;5071119;28;20100;-79
2021/04/01 12:35:08;;;;;;;49.75;23.08;;;;;;;23.20;37.55;97693.41;5073764;28;20041;-77
2021/04/01 12:37:35;;;;;;;44.72;20.48;;;;;;;25.54;34.82;97693.78;5071573;28;20411;-77
2021/04/01 12:40:15;;;;;;;37.17;19.23;;;;;;;24.66;34.17;97686.97;5068854;28;20064;-77
2021/04/01 12:42:43;;;;;;;43.90;21.42;;;;;;;25.31;33.88;97686.88;5071471;28;20454;-78
2021/04/01 12:45:28;;;;;;;36.60;21.45;;;;;;;26.96;31.68;97686.03;5074826;28;20115;-79
2021/04/01 12:48:12;;;;;;;44.03;23.33;;;;;;;24.92;32.40;97682.84;5073342;28;20052;-79
2021/04/01 12:50:41;;;;;;;42.35;23.20;;;;;;;24.88;32.80;97676.56;5075901;28;20240;-77
2021/04/01 12:53:08;;;;;;;48.58;24.27;;;;;;;25.55;31.50;97673.97;5090248;28;20074;-77
2021/04/01 12:58:07;;;;;;;46.20;24.05;;;;;;;26.30;31.32;97673.91;5083173;28;20051;-76
2021/04/01 13:00:46;;;;;;;49.20;24.60;;;;;;;25.85;32.79;97662.94;5078563;28;20044;-77